sensor_id;sensor_type;location;lat;lon;timestamp;P1;durP1;ratioP1;P2;durP2;ratioP2
40373;SDS011;26079;45.958;12.492;2023-05-14T00:01:24;2.70;;;2.55;;
40373;SDS011;26079;45.958;12.492;2023-05-14T00:03:50;3.88;;;3.67;;
40373;SDS011;26079;45.958;12.492;2023-05-14T00:06:15;8.48;;;4.90;;
40373;SDS011;26079;45.958;12.492;2023-05-14T00:08:41;4.53;;;4.22;;
40373;SDS011;26079;45.958;12.492;2023-05-14T00:11:07;6.05;;;5.75;;
40373;SDS011;26079;45.958;12.492;2023-05-14T00:13:33;10.60;;;10.05;;
40373;SDS011;26079;45.958;12.492;2023-05-14T00:15:59;10.15;;;9.60;;
40373;SDS011;26079;45.958;12.492;2023-05-14T00:18:25;15.73;;;14.75;;
40373;SDS011;26079;45.958;12.492;2023-05-14T00:20:50;18.70;;;17.55;;
40373;SDS011;26079;45.958;12.492;2023-05-14T00:23:19;25.77;;;24.33;;
40373;SDS011;26079;45.958;12.492;2023-05-14T00:25:45;27.40;;;25.70;;
40373;SDS011;26079;45.958;12.492;2023-05-14T00:28:10;27.17;;;25.77;;
40373;SDS011;26079;45.958;12.492;2023-05-14T00:30:36;18.60;;;17.65;;
40373;SDS011;26079;45.958;12.492;2023-05-14T00:33:02;6.57;;;6.18;;
40373;SDS011;26079;45.958;12.492;2023-05-14T00:35:28;5.38;;;4.97;;
40373;SDS011;26079;45.958;12.492;2023-05-14T00:37:53;4.55;;;4.25;;
40373;SDS011;26079;45.958;12.492;2023-05-14T00:40:19;4.25;;;4.05;;
40373;SDS011;26079;45.958;12.492;2023-05-14T00:42:46;3.90;;;3.70;;
40373;SDS011;26079;45.958;12.492;2023-05-14T00:45:12;6.53;;;6.15;;
40373;SDS011;26079;45.958;12.492;2023-05-14T00:47:37;7.25;;;6.80;;
40373;SDS011;26079;45.958;12.492;2023-05-14T00:50:04;5.15;;;4.82;;
40373;SDS011;26079;45.958;12.492;2023-05-14T00:52:30;5.28;;;4.95;;
40373;SDS011;26079;45.958;12.492;2023-05-14T00:54:57;5.38;;;3.70;;
40373;SDS011;26079;45.958;12.492;2023-05-14T00:57:23;4.60;;;4.30;;
40373;SDS011;26079;45.958;12.492;2023-05-14T00:59:49;6.00;;;5.53;;
40373;SDS011;26079;45.958;12.492;2023-05-14T01:02:14;5.45;;;5.03;;
40373;SDS011;26079;45.958;12.492;2023-05-14T01:04:40;12.27;;;11.52;;
40373;SDS011;26079;45.958;12.492;2023-05-14T01:10:31;5.53;;;5.20;;
40373;SDS011;26079;45.958;12.492;2023-05-14T01:16:00;5.47;;;5.18;;
40373;SDS011;26079;45.958;12.492;2023-05-14T01:18:28;9.00;;;8.32;;
40373;SDS011;26079;45.958;12.492;2023-05-14T01:20:56;8.30;;;7.68;;
40373;SDS011;26079;45.958;12.492;2023-05-14T01:23:22;18.83;;;17.83;;
40373;SDS011;26079;45.958;12.492;2023-05-14T01:25:47;7.63;;;7.20;;
40373;SDS011;26079;45.958;12.492;2023-05-14T01:33:40;10.38;;;9.80;;
40373;SDS011;26079;45.958;12.492;2023-05-14T01:36:07;16.00;;;14.75;;
40373;SDS011;26079;45.958;12.492;2023-05-14T01:38:34;9.48;;;8.63;;
40373;SDS011;26079;45.958;12.492;2023-05-14T01:41:01;11.25;;;10.70;;
40373;SDS011;26079;45.958;12.492;2023-05-14T01:43:28;14.73;;;13.88;;
40373;SDS011;26079;45.958;12.492;2023-05-14T01:45:55;8.30;;;7.78;;
40373;SDS011;26079;45.958;12.492;2023-05-14T01:48:20;8.65;;;8.13;;
40373;SDS011;26079;45.958;12.492;2023-05-14T01:50:46;7.20;;;6.35;;
40373;SDS011;26079;45.958;12.492;2023-05-14T01:53:12;6.18;;;5.68;;
40373;SDS011;26079;45.958;12.492;2023-05-14T01:55:37;7.53;;;6.85;;
40373;SDS011;26079;45.958;12.492;2023-05-14T01:58:03;6.50;;;6.10;;
40373;SDS011;26079;45.958;12.492;2023-05-14T02:00:29;7.75;;;7.32;;
40373;SDS011;26079;45.958;12.492;2023-05-14T02:02:55;6.88;;;6.28;;
40373;SDS011;26079;45.958;12.492;2023-05-14T02:05:21;6.25;;;5.85;;
40373;SDS011;26079;45.958;12.492;2023-05-14T02:07:46;6.78;;;6.35;;
40373;SDS011;26079;45.958;12.492;2023-05-14T02:10:12;8.02;;;7.30;;
40373;SDS011;26079;45.958;12.492;2023-05-14T02:12:38;7.65;;;7.20;;
40373;SDS011;26079;45.958;12.492;2023-05-14T02:15:04;11.45;;;10.73;;
40373;SDS011;26079;45.958;12.492;2023-05-14T02:17:30;7.93;;;7.45;;
40373;SDS011;26079;45.958;12.492;2023-05-14T02:19:55;7.30;;;6.78;;
40373;SDS011;26079;45.958;12.492;2023-05-14T02:22:21;10.13;;;9.38;;
40373;SDS011;26079;45.958;12.492;2023-05-14T02:24:47;13.60;;;12.85;;
40373;SDS011;26079;45.958;12.492;2023-05-14T02:27:13;7.65;;;7.20;;
40373;SDS011;26079;45.958;12.492;2023-05-14T02:29:39;6.57;;;6.18;;
40373;SDS011;26079;45.958;12.492;2023-05-14T02:32:05;10.20;;;9.55;;
40373;SDS011;26079;45.958;12.492;2023-05-14T02:34:31;12.38;;;11.60;;
40373;SDS011;26079;45.958;12.492;2023-05-14T02:36:58;8.15;;;7.45;;
40373;SDS011;26079;45.958;12.492;2023-05-14T02:39:24;7.30;;;6.97;;
40373;SDS011;26079;45.958;12.492;2023-05-14T02:41:50;10.10;;;9.43;;
40373;SDS011;26079;45.958;12.492;2023-05-14T02:44:15;10.18;;;9.60;;
40373;SDS011;26079;45.958;12.492;2023-05-14T02:46:41;12.95;;;12.15;;
40373;SDS011;26079;45.958;12.492;2023-05-14T02:49:07;13.52;;;12.80;;
40373;SDS011;26079;45.958;12.492;2023-05-14T02:51:32;10.75;;;10.07;;
40373;SDS011;26079;45.958;12.492;2023-05-14T02:53:58;14.68;;;13.95;;
40373;SDS011;26079;45.958;12.492;2023-05-14T02:56:24;12.60;;;11.85;;
40373;SDS011;26079;45.958;12.492;2023-05-14T02:58:50;17.17;;;16.00;;
40373;SDS011;26079;45.958;12.492;2023-05-14T03:01:16;23.73;;;22.15;;
40373;SDS011;26079;45.958;12.492;2023-05-14T03:03:42;10.75;;;10.18;;
40373;SDS011;26079;45.958;12.492;2023-05-14T03:06:08;6.85;;;6.53;;
40373;SDS011;26079;45.958;12.492;2023-05-14T03:08:34;7.93;;;7.40;;
40373;SDS011;26079;45.958;12.492;2023-05-14T03:11:00;12.52;;;11.85;;
40373;SDS011;26079;45.958;12.492;2023-05-14T03:13:26;15.48;;;14.65;;
40373;SDS011;26079;45.958;12.492;2023-05-14T03:15:51;8.98;;;8.35;;
40373;SDS011;26079;45.958;12.492;2023-05-14T03:18:18;7.60;;;7.20;;
40373;SDS011;26079;45.958;12.492;2023-05-14T03:20:44;9.45;;;8.95;;
40373;SDS011;26079;45.958;12.492;2023-05-14T03:23:10;10.35;;;9.02;;
40373;SDS011;26079;45.958;12.492;2023-05-14T03:25:36;11.93;;;11.32;;
40373;SDS011;26079;45.958;12.492;2023-05-14T03:28:02;8.65;;;8.05;;
40373;SDS011;26079;45.958;12.492;2023-05-14T03:30:28;6.88;;;6.38;;
40373;SDS011;26079;45.958;12.492;2023-05-14T03:32:53;7.95;;;7.45;;
40373;SDS011;26079;45.958;12.492;2023-05-14T03:35:19;6.53;;;5.93;;
40373;SDS011;26079;45.958;12.492;2023-05-14T03:37:45;9.38;;;8.88;;
40373;SDS011;26079;45.958;12.492;2023-05-14T03:40:10;7.30;;;6.95;;
40373;SDS011;26079;45.958;12.492;2023-05-14T03:42:36;14.13;;;13.38;;
40373;SDS011;26079;45.958;12.492;2023-05-14T03:45:02;19.17;;;18.13;;
40373;SDS011;26079;45.958;12.492;2023-05-14T03:47:28;17.63;;;16.65;;
40373;SDS011;26079;45.958;12.492;2023-05-14T03:49:53;18.70;;;17.75;;
40373;SDS011;26079;45.958;12.492;2023-05-14T03:52:19;13.02;;;12.32;;
40373;SDS011;26079;45.958;12.492;2023-05-14T03:54:45;10.18;;;9.63;;
40373;SDS011;26079;45.958;12.492;2023-05-14T03:57:10;18.58;;;17.45;;
40373;SDS011;26079;45.958;12.492;2023-05-14T03:59:36;12.73;;;11.55;;
40373;SDS011;26079;45.958;12.492;2023-05-14T04:02:02;10.65;;;9.90;;
40373;SDS011;26079;45.958;12.492;2023-05-14T04:04:27;7.20;;;6.60;;
40373;SDS011;26079;45.958;12.492;2023-05-14T04:06:53;5.47;;;5.07;;
40373;SDS011;26079;45.958;12.492;2023-05-14T04:09:19;4.75;;;4.50;;
40373;SDS011;26079;45.958;12.492;2023-05-14T04:11:44;6.63;;;6.28;;
40373;SDS011;26079;45.958;12.492;2023-05-14T04:14:10;10.77;;;9.57;;
40373;SDS011;26079;45.958;12.492;2023-05-14T04:16:36;5.95;;;5.65;;
40373;SDS011;26079;45.958;12.492;2023-05-14T04:19:01;6.63;;;6.10;;
40373;SDS011;26079;45.958;12.492;2023-05-14T04:21:30;5.72;;;5.43;;
40373;SDS011;26079;45.958;12.492;2023-05-14T04:23:56;4.88;;;4.57;;
40373;SDS011;26079;45.958;12.492;2023-05-14T04:26:22;4.07;;;3.88;;
40373;SDS011;26079;45.958;12.492;2023-05-14T04:28:47;3.40;;;3.10;;
40373;SDS011;26079;45.958;12.492;2023-05-14T04:31:13;4.22;;;4.03;;
40373;SDS011;26079;45.958;12.492;2023-05-14T04:33:39;5.80;;;5.30;;
40373;SDS011;26079;45.958;12.492;2023-05-14T04:36:06;3.78;;;3.58;;
40373;SDS011;26079;45.958;12.492;2023-05-14T04:38:31;3.92;;;3.40;;
40373;SDS011;26079;45.958;12.492;2023-05-14T04:40:57;4.32;;;4.13;;
40373;SDS011;26079;45.958;12.492;2023-05-14T04:43:22;5.88;;;5.38;;
40373;SDS011;26079;45.958;12.492;2023-05-14T04:45:48;2.90;;;2.80;;
40373;SDS011;26079;45.958;12.492;2023-05-14T04:48:15;3.90;;;3.38;;
40373;SDS011;26079;45.958;12.492;2023-05-14T04:50:41;2.60;;;2.47;;
40373;SDS011;26079;45.958;12.492;2023-05-14T04:53:08;3.53;;;3.33;;
40373;SDS011;26079;45.958;12.492;2023-05-14T04:55:34;1.77;;;1.73;;
40373;SDS011;26079;45.958;12.492;2023-05-14T04:58:00;1.63;;;1.50;;
40373;SDS011;26079;45.958;12.492;2023-05-14T05:00:26;2.20;;;0.85;;
40373;SDS011;26079;45.958;12.492;2023-05-14T05:02:52;1.02;;;0.80;;
40373;SDS011;26079;45.958;12.492;2023-05-14T05:05:18;1.42;;;1.33;;
40373;SDS011;26079;45.958;12.492;2023-05-14T05:07:44;1.33;;;1.23;;
40373;SDS011;26079;45.958;12.492;2023-05-14T05:10:10;1.63;;;1.13;;
40373;SDS011;26079;45.958;12.492;2023-05-14T05:12:35;1.55;;;1.45;;
40373;SDS011;26079;45.958;12.492;2023-05-14T05:15:02;1.25;;;0.88;;
40373;SDS011;26079;45.958;12.492;2023-05-14T05:17:28;8.82;;;1.98;;
40373;SDS011;26079;45.958;12.492;2023-05-14T05:19:54;1.45;;;1.25;;
40373;SDS011;26079;45.958;12.492;2023-05-14T05:22:19;1.48;;;0.90;;
40373;SDS011;26079;45.958;12.492;2023-05-14T05:24:45;1.40;;;1.30;;
40373;SDS011;26079;45.958;12.492;2023-05-14T05:27:11;1.08;;;1.05;;
40373;SDS011;26079;45.958;12.492;2023-05-14T05:29:37;2.60;;;0.63;;
40373;SDS011;26079;45.958;12.492;2023-05-14T05:32:02;0.80;;;0.80;;
40373;SDS011;26079;45.958;12.492;2023-05-14T05:34:28;0.70;;;0.70;;
40373;SDS011;26079;45.958;12.492;2023-05-14T05:36:54;4.57;;;1.40;;
40373;SDS011;26079;45.958;12.492;2023-05-14T05:39:20;4.03;;;0.52;;
40373;SDS011;26079;45.958;12.492;2023-05-14T05:41:45;1.10;;;0.50;;
40373;SDS011;26079;45.958;12.492;2023-05-14T05:44:11;2.08;;;0.63;;
40373;SDS011;26079;45.958;12.492;2023-05-14T05:46:36;2.50;;;1.40;;
40373;SDS011;26079;45.958;12.492;2023-05-14T05:49:02;10.23;;;9.68;;
40373;SDS011;26079;45.958;12.492;2023-05-14T05:51:28;4.53;;;4.22;;
40373;SDS011;26079;45.958;12.492;2023-05-14T05:53:54;5.03;;;4.72;;
40373;SDS011;26079;45.958;12.492;2023-05-14T05:56:19;10.80;;;10.25;;
40373;SDS011;26079;45.958;12.492;2023-05-14T05:58:46;12.55;;;11.88;;
40373;SDS011;26079;45.958;12.492;2023-05-14T06:01:11;8.15;;;7.78;;
40373;SDS011;26079;45.958;12.492;2023-05-14T06:03:37;7.45;;;7.03;;
40373;SDS011;26079;45.958;12.492;2023-05-14T06:06:03;8.75;;;8.00;;
40373;SDS011;26079;45.958;12.492;2023-05-14T06:08:28;6.93;;;6.45;;
40373;SDS011;26079;45.958;12.492;2023-05-14T06:10:54;10.25;;;9.70;;
40373;SDS011;26079;45.958;12.492;2023-05-14T06:13:20;6.05;;;5.75;;
40373;SDS011;26079;45.958;12.492;2023-05-14T06:15:45;7.68;;;7.32;;
40373;SDS011;26079;45.958;12.492;2023-05-14T06:18:11;8.13;;;7.72;;
40373;SDS011;26079;45.958;12.492;2023-05-14T06:20:37;10.52;;;9.90;;
40373;SDS011;26079;45.958;12.492;2023-05-14T06:23:02;6.45;;;6.13;;
40373;SDS011;26079;45.958;12.492;2023-05-14T06:25:28;9.82;;;9.25;;
40373;SDS011;26079;45.958;12.492;2023-05-14T06:27:54;7.70;;;7.22;;
40373;SDS011;26079;45.958;12.492;2023-05-14T06:30:19;6.88;;;6.35;;
40373;SDS011;26079;45.958;12.492;2023-05-14T06:32:45;23.90;;;22.65;;
40373;SDS011;26079;45.958;12.492;2023-05-14T06:35:10;23.75;;;22.55;;
40373;SDS011;26079;45.958;12.492;2023-05-14T06:37:36;9.80;;;9.27;;
40373;SDS011;26079;45.958;12.492;2023-05-14T06:40:02;6.28;;;4.53;;
40373;SDS011;26079;45.958;12.492;2023-05-14T06:42:28;7.43;;;7.07;;
40373;SDS011;26079;45.958;12.492;2023-05-14T06:44:53;3.83;;;3.67;;
40373;SDS011;26079;45.958;12.492;2023-05-14T06:47:19;3.83;;;3.58;;
40373;SDS011;26079;45.958;12.492;2023-05-14T06:49:45;1.08;;;0.93;;
40373;SDS011;26079;45.958;12.492;2023-05-14T06:52:11;5.65;;;5.22;;
40373;SDS011;26079;45.958;12.492;2023-05-14T06:54:36;1.30;;;0.88;;
40373;SDS011;26079;45.958;12.492;2023-05-14T06:57:03;2.47;;;0.90;;
40373;SDS011;26079;45.958;12.492;2023-05-14T06:59:28;9.55;;;1.27;;
40373;SDS011;26079;45.958;12.492;2023-05-14T07:01:54;1.80;;;1.38;;
40373;SDS011;26079;45.958;12.492;2023-05-14T07:04:20;6.68;;;3.55;;
40373;SDS011;26079;45.958;12.492;2023-05-14T07:06:45;3.33;;;1.75;;
40373;SDS011;26079;45.958;12.492;2023-05-14T07:09:11;1.15;;;1.05;;
40373;SDS011;26079;45.958;12.492;2023-05-14T07:11:37;5.75;;;5.40;;
40373;SDS011;26079;45.958;12.492;2023-05-14T07:14:02;2.70;;;1.23;;
40373;SDS011;26079;45.958;12.492;2023-05-14T07:16:28;0.93;;;0.93;;
40373;SDS011;26079;45.958;12.492;2023-05-14T07:18:54;0.68;;;0.68;;
40373;SDS011;26079;45.958;12.492;2023-05-14T07:21:20;0.73;;;0.73;;
40373;SDS011;26079;45.958;12.492;2023-05-14T07:23:45;2.42;;;1.90;;
40373;SDS011;26079;45.958;12.492;2023-05-14T07:26:11;3.38;;;2.63;;
40373;SDS011;26079;45.958;12.492;2023-05-14T07:28:36;4.88;;;4.40;;
40373;SDS011;26079;45.958;12.492;2023-05-14T07:31:02;3.95;;;3.65;;
40373;SDS011;26079;45.958;12.492;2023-05-14T07:33:33;3.33;;;3.03;;
40373;SDS011;26079;45.958;12.492;2023-05-14T07:36:02;1.88;;;1.50;;
40373;SDS011;26079;45.958;12.492;2023-05-14T07:38:28;2.13;;;1.15;;
40373;SDS011;26079;45.958;12.492;2023-05-14T07:40:53;2.38;;;1.05;;
40373;SDS011;26079;45.958;12.492;2023-05-14T07:43:20;2.53;;;1.92;;
40373;SDS011;26079;45.958;12.492;2023-05-14T07:45:45;9.27;;;8.20;;
40373;SDS011;26079;45.958;12.492;2023-05-14T07:48:11;1.30;;;1.25;;
40373;SDS011;26079;45.958;12.492;2023-05-14T07:50:37;3.75;;;3.50;;
40373;SDS011;26079;45.958;12.492;2023-05-14T07:53:02;0.85;;;0.80;;
40373;SDS011;26079;45.958;12.492;2023-05-14T07:55:28;1.40;;;1.30;;
40373;SDS011;26079;45.958;12.492;2023-05-14T07:57:54;2.65;;;1.50;;
40373;SDS011;26079;45.958;12.492;2023-05-14T08:00:20;2.47;;;1.83;;
40373;SDS011;26079;45.958;12.492;2023-05-14T08:02:45;2.50;;;2.30;;
40373;SDS011;26079;45.958;12.492;2023-05-14T08:05:12;2.03;;;1.92;;
40373;SDS011;26079;45.958;12.492;2023-05-14T08:07:38;2.55;;;2.03;;
40373;SDS011;26079;45.958;12.492;2023-05-14T08:10:04;1.85;;;1.75;;
40373;SDS011;26079;45.958;12.492;2023-05-14T08:12:31;11.85;;;11.23;;
40373;SDS011;26079;45.958;12.492;2023-05-14T08:14:57;8.23;;;7.72;;
40373;SDS011;26079;45.958;12.492;2023-05-14T08:17:22;25.70;;;24.02;;
40373;SDS011;26079;45.958;12.492;2023-05-14T08:19:48;9.68;;;9.18;;
40373;SDS011;26079;45.958;12.492;2023-05-14T08:22:14;10.43;;;9.93;;
40373;SDS011;26079;45.958;12.492;2023-05-14T08:24:39;10.52;;;9.95;;
40373;SDS011;26079;45.958;12.492;2023-05-14T08:27:07;13.20;;;12.43;;
40373;SDS011;26079;45.958;12.492;2023-05-14T08:29:33;42.78;;;40.58;;
40373;SDS011;26079;45.958;12.492;2023-05-14T08:31:58;32.90;;;31.20;;
40373;SDS011;26079;45.958;12.492;2023-05-14T08:34:24;36.33;;;34.42;;
40373;SDS011;26079;45.958;12.492;2023-05-14T08:36:50;32.13;;;30.33;;
40373;SDS011;26079;45.958;12.492;2023-05-14T08:39:15;50.55;;;47.53;;
40373;SDS011;26079;45.958;12.492;2023-05-14T08:41:41;71.35;;;67.38;;
40373;SDS011;26079;45.958;12.492;2023-05-14T08:44:14;56.53;;;53.55;;
40373;SDS011;26079;45.958;12.492;2023-05-14T08:46:43;50.55;;;47.70;;
40373;SDS011;26079;45.958;12.492;2023-05-14T08:52:01;64.07;;;60.58;;
40373;SDS011;26079;45.958;12.492;2023-05-14T08:54:28;95.00;;;89.00;;
40373;SDS011;26079;45.958;12.492;2023-05-14T08:56:56;67.90;;;64.22;;
40373;SDS011;26079;45.958;12.492;2023-05-14T08:59:22;69.30;;;65.47;;
40373;SDS011;26079;45.958;12.492;2023-05-14T09:01:51;60.25;;;57.03;;
40373;SDS011;26079;45.958;12.492;2023-05-14T09:04:21;78.78;;;73.03;;
40373;SDS011;26079;45.958;12.492;2023-05-14T09:06:49;30.90;;;29.30;;
40373;SDS011;26079;45.958;12.492;2023-05-14T09:09:16;7.28;;;6.78;;
40373;SDS011;26079;45.958;12.492;2023-05-14T09:11:45;12.55;;;11.40;;
40373;SDS011;26079;45.958;12.492;2023-05-14T09:14:15;7.03;;;6.53;;
40373;SDS011;26079;45.958;12.492;2023-05-14T09:16:42;11.00;;;10.27;;
40373;SDS011;26079;45.958;12.492;2023-05-14T09:19:10;9.90;;;9.40;;
40373;SDS011;26079;45.958;12.492;2023-05-14T09:21:39;36.60;;;34.67;;
40373;SDS011;26079;45.958;12.492;2023-05-14T09:24:06;40.17;;;38.03;;
40373;SDS011;26079;45.958;12.492;2023-05-14T09:26:33;41.80;;;39.58;;
40373;SDS011;26079;45.958;12.492;2023-05-14T09:28:59;32.03;;;30.40;;
40373;SDS011;26079;45.958;12.492;2023-05-14T09:31:29;19.73;;;18.73;;
40373;SDS011;26079;45.958;12.492;2023-05-14T09:33:56;11.00;;;10.40;;
40373;SDS011;26079;45.958;12.492;2023-05-14T09:36:22;52.17;;;49.30;;
40373;SDS011;26079;45.958;12.492;2023-05-14T09:38:51;53.00;;;49.92;;
40373;SDS011;26079;45.958;12.492;2023-05-14T09:41:28;72.82;;;68.88;;
40373;SDS011;26079;45.958;12.492;2023-05-14T09:43:56;84.15;;;78.82;;
40373;SDS011;26079;45.958;12.492;2023-05-14T09:46:22;53.33;;;50.45;;
40373;SDS011;26079;45.958;12.492;2023-05-14T09:48:48;70.57;;;66.47;;
40373;SDS011;26079;45.958;12.492;2023-05-14T09:51:14;88.55;;;82.82;;
40373;SDS011;26079;45.958;12.492;2023-05-14T09:53:45;221.93;;;200.98;;
40373;SDS011;26079;45.958;12.492;2023-05-14T09:56:11;147.00;;;136.63;;
40373;SDS011;26079;45.958;12.492;2023-05-14T09:58:36;71.05;;;67.20;;
40373;SDS011;26079;45.958;12.492;2023-05-14T10:01:02;74.47;;;70.18;;
40373;SDS011;26079;45.958;12.492;2023-05-14T10:03:30;58.88;;;55.67;;
40373;SDS011;26079;45.958;12.492;2023-05-14T10:06:00;61.00;;;57.72;;
40373;SDS011;26079;45.958;12.492;2023-05-14T10:08:31;50.75;;;48.08;;
40373;SDS011;26079;45.958;12.492;2023-05-14T10:11:00;50.45;;;47.55;;
40373;SDS011;26079;45.958;12.492;2023-05-14T10:13:36;55.60;;;52.58;;
40373;SDS011;26079;45.958;12.492;2023-05-14T10:18:55;66.35;;;62.50;;
40373;SDS011;26079;45.958;12.492;2023-05-14T10:21:25;115.72;;;107.68;;
40373;SDS011;26079;45.958;12.492;2023-05-14T10:23:54;150.07;;;139.00;;
40373;SDS011;26079;45.958;12.492;2023-05-14T10:26:20;80.93;;;75.90;;
40373;SDS011;26079;45.958;12.492;2023-05-14T10:28:46;81.75;;;76.90;;
40373;SDS011;26079;45.958;12.492;2023-05-14T10:31:12;75.15;;;70.75;;
40373;SDS011;26079;45.958;12.492;2023-05-14T10:33:47;92.30;;;86.30;;
40373;SDS011;26079;45.958;12.492;2023-05-14T10:36:14;105.97;;;98.63;;
40373;SDS011;26079;45.958;12.492;2023-05-14T10:38:46;84.10;;;79.03;;
40373;SDS011;26079;45.958;12.492;2023-05-14T10:41:19;96.18;;;89.88;;
40373;SDS011;26079;45.958;12.492;2023-05-14T10:43:46;82.90;;;77.78;;
40373;SDS011;26079;45.958;12.492;2023-05-14T10:46:12;100.68;;;94.45;;
40373;SDS011;26079;45.958;12.492;2023-05-14T10:48:40;115.32;;;107.82;;
40373;SDS011;26079;45.958;12.492;2023-05-14T10:51:10;135.18;;;125.25;;
40373;SDS011;26079;45.958;12.492;2023-05-14T10:53:37;143.10;;;132.25;;
40373;SDS011;26079;45.958;12.492;2023-05-14T10:56:05;123.97;;;115.47;;
40373;SDS011;26079;45.958;12.492;2023-05-14T10:58:35;152.60;;;141.02;;
40373;SDS011;26079;45.958;12.492;2023-05-14T11:01:09;173.38;;;157.65;;
40373;SDS011;26079;45.958;12.492;2023-05-14T11:03:42;190.15;;;173.35;;
40373;SDS011;26079;45.958;12.492;2023-05-14T11:06:11;143.05;;;132.02;;
40373;SDS011;26079;45.958;12.492;2023-05-14T11:08:39;150.07;;;138.18;;
40373;SDS011;26079;45.958;12.492;2023-05-14T11:11:05;159.15;;;146.05;;
40373;SDS011;26079;45.958;12.492;2023-05-14T11:13:31;116.15;;;108.55;;
40373;SDS011;26079;45.958;12.492;2023-05-14T11:15:58;109.07;;;101.78;;
40373;SDS011;26079;45.958;12.492;2023-05-14T11:18:29;73.82;;;69.47;;
40373;SDS011;26079;45.958;12.492;2023-05-14T11:21:00;70.15;;;66.03;;
40373;SDS011;26079;45.958;12.492;2023-05-14T11:23:26;83.18;;;78.38;;
40373;SDS011;26079;45.958;12.492;2023-05-14T11:25:52;82.90;;;77.78;;
40373;SDS011;26079;45.958;12.492;2023-05-14T11:28:22;101.28;;;94.50;;
40373;SDS011;26079;45.958;12.492;2023-05-14T11:30:50;82.13;;;76.72;;
40373;SDS011;26079;45.958;12.492;2023-05-14T11:33:17;82.45;;;77.22;;
40373;SDS011;26079;45.958;12.492;2023-05-14T11:35:44;80.18;;;75.13;;
40373;SDS011;26079;45.958;12.492;2023-05-14T11:38:14;69.78;;;65.70;;
40373;SDS011;26079;45.958;12.492;2023-05-14T11:40:41;64.18;;;60.63;;
40373;SDS011;26079;45.958;12.492;2023-05-14T11:43:07;63.03;;;59.42;;
40373;SDS011;26079;45.958;12.492;2023-05-14T11:45:33;82.28;;;77.13;;
40373;SDS011;26079;45.958;12.492;2023-05-14T11:48:00;73.95;;;69.38;;
40373;SDS011;26079;45.958;12.492;2023-05-14T11:50:26;212.75;;;193.05;;
40373;SDS011;26079;45.958;12.492;2023-05-14T11:52:54;85.50;;;79.93;;
40373;SDS011;26079;45.958;12.492;2023-05-14T11:55:21;173.13;;;158.57;;
40373;SDS011;26079;45.958;12.492;2023-05-14T11:57:46;210.43;;;191.27;;
40373;SDS011;26079;45.958;12.492;2023-05-14T12:00:12;321.80;;;290.08;;
40373;SDS011;26079;45.958;12.492;2023-05-14T12:02:45;321.65;;;279.17;;
40373;SDS011;26079;45.958;12.492;2023-05-14T12:05:13;213.45;;;194.90;;
40373;SDS011;26079;45.958;12.492;2023-05-14T12:07:38;318.20;;;277.25;;
40373;SDS011;26079;45.958;12.492;2023-05-14T12:10:06;249.73;;;225.95;;
40373;SDS011;26079;45.958;12.492;2023-05-14T12:12:35;204.15;;;187.95;;
40373;SDS011;26079;45.958;12.492;2023-05-14T12:15:01;387.77;;;347.30;;
40373;SDS011;26079;45.958;12.492;2023-05-14T12:17:26;128.18;;;118.85;;
40373;SDS011;26079;45.958;12.492;2023-05-14T12:19:52;192.60;;;176.07;;
40373;SDS011;26079;45.958;12.492;2023-05-14T12:22:21;115.40;;;107.47;;
40373;SDS011;26079;45.958;12.492;2023-05-14T12:24:54;291.33;;;262.65;;
40373;SDS011;26079;45.958;12.492;2023-05-14T12:27:21;55.42;;;52.50;;
40373;SDS011;26079;45.958;12.492;2023-05-14T12:29:49;45.50;;;43.13;;
40373;SDS011;26079;45.958;12.492;2023-05-14T12:32:17;33.40;;;31.75;;
40373;SDS011;26079;45.958;12.492;2023-05-14T12:34:43;27.08;;;25.58;;
40373;SDS011;26079;45.958;12.492;2023-05-14T12:37:09;22.85;;;21.70;;
40373;SDS011;26079;45.958;12.492;2023-05-14T12:39:35;29.42;;;27.80;;
40373;SDS011;26079;45.958;12.492;2023-05-14T12:42:00;81.88;;;76.90;;
40373;SDS011;26079;45.958;12.492;2023-05-14T12:44:26;89.95;;;84.72;;
40373;SDS011;26079;45.958;12.492;2023-05-14T12:46:52;50.90;;;48.35;;
40373;SDS011;26079;45.958;12.492;2023-05-14T12:49:18;98.43;;;91.82;;
40373;SDS011;26079;45.958;12.492;2023-05-14T12:51:44;102.25;;;96.63;;
40373;SDS011;26079;45.958;12.492;2023-05-14T12:54:10;36.05;;;33.70;;
40373;SDS011;26079;45.958;12.492;2023-05-14T12:56:37;14.90;;;14.20;;
40373;SDS011;26079;45.958;12.492;2023-05-14T12:59:03;12.05;;;11.48;;
40373;SDS011;26079;45.958;12.492;2023-05-14T13:01:29;11.18;;;10.60;;
40373;SDS011;26079;45.958;12.492;2023-05-14T13:03:54;1.35;;;0.75;;
40373;SDS011;26079;45.958;12.492;2023-05-14T13:06:20;10.48;;;9.98;;
40373;SDS011;26079;45.958;12.492;2023-05-14T13:08:46;2.50;;;2.35;;
40373;SDS011;26079;45.958;12.492;2023-05-14T13:11:12;10.57;;;10.05;;
40373;SDS011;26079;45.958;12.492;2023-05-14T13:13:37;50.95;;;48.35;;
40373;SDS011;26079;45.958;12.492;2023-05-14T13:16:03;11.02;;;10.23;;
40373;SDS011;26079;45.958;12.492;2023-05-14T13:18:29;0.70;;;0.70;;
40373;SDS011;26079;45.958;12.492;2023-05-14T13:21:00;5.53;;;5.28;;
